sensor_id;sensor_type;location;lat;lon;timestamp;P1;durP1;ratioP1;P2;durP2;ratioP2
20022;SDS011;10172;42.054;24.546;2023-05-07T00:01:32;6.10;;;2.58;;
20022;SDS011;10172;42.054;24.546;2023-05-07T00:03:58;5.45;;;2.95;;
20022;SDS011;10172;42.054;24.546;2023-05-07T00:06:23;4.30;;;2.75;;
20022;SDS011;10172;42.054;24.546;2023-05-07T00:08:49;4.18;;;2.70;;
20022;SDS011;10172;42.054;24.546;2023-05-07T00:11:14;4.35;;;2.95;;
20022;SDS011;10172;42.054;24.546;2023-05-07T00:13:40;5.28;;;3.00;;
20022;SDS011;10172;42.054;24.546;2023-05-07T00:16:05;4.20;;;2.85;;
20022;SDS011;10172;42.054;24.546;2023-05-07T00:18:30;8.10;;;3.53;;
20022;SDS011;10172;42.054;24.546;2023-05-07T00:20:56;4.35;;;3.13;;
20022;SDS011;10172;42.054;24.546;2023-05-07T00:23:22;8.70;;;3.30;;
20022;SDS011;10172;42.054;24.546;2023-05-07T00:25:48;5.43;;;3.17;;
20022;SDS011;10172;42.054;24.546;2023-05-07T00:28:13;5.50;;;3.25;;
20022;SDS011;10172;42.054;24.546;2023-05-07T00:30:39;4.03;;;2.88;;
20022;SDS011;10172;42.054;24.546;2023-05-07T00:33:04;5.85;;;3.05;;
20022;SDS011;10172;42.054;24.546;2023-05-07T00:35:30;4.30;;;2.75;;
20022;SDS011;10172;42.054;24.546;2023-05-07T00:37:55;6.88;;;3.25;;
20022;SDS011;10172;42.054;24.546;2023-05-07T00:40:21;6.28;;;3.35;;
20022;SDS011;10172;42.054;24.546;2023-05-07T00:42:46;5.38;;;3.22;;
20022;SDS011;10172;42.054;24.546;2023-05-07T00:45:14;4.70;;;3.30;;
20022;SDS011;10172;42.054;24.546;2023-05-07T00:47:40;4.93;;;3.22;;
20022;SDS011;10172;42.054;24.546;2023-05-07T00:50:06;9.50;;;3.08;;
20022;SDS011;10172;42.054;24.546;2023-05-07T00:52:33;9.23;;;3.80;;
20022;SDS011;10172;42.054;24.546;2023-05-07T00:55:00;6.93;;;3.60;;
20022;SDS011;10172;42.054;24.546;2023-05-07T00:57:37;4.32;;;3.30;;
20022;SDS011;10172;42.054;24.546;2023-05-07T01:00:07;4.95;;;3.40;;
20022;SDS011;10172;42.054;24.546;2023-05-07T01:02:40;6.68;;;3.45;;
20022;SDS011;10172;42.054;24.546;2023-05-07T01:05:07;5.35;;;3.15;;
20022;SDS011;10172;42.054;24.546;2023-05-07T01:07:34;5.15;;;3.30;;
20022;SDS011;10172;42.054;24.546;2023-05-07T01:10:02;6.85;;;3.70;;
20022;SDS011;10172;42.054;24.546;2023-05-07T01:12:29;5.63;;;3.78;;
20022;SDS011;10172;42.054;24.546;2023-05-07T01:14:56;4.38;;;3.47;;
20022;SDS011;10172;42.054;24.546;2023-05-07T01:17:22;7.15;;;3.63;;
20022;SDS011;10172;42.054;24.546;2023-05-07T01:19:48;5.32;;;3.60;;
20022;SDS011;10172;42.054;24.546;2023-05-07T01:22:14;5.47;;;3.80;;
20022;SDS011;10172;42.054;24.546;2023-05-07T01:24:41;4.25;;;3.30;;
20022;SDS011;10172;42.054;24.546;2023-05-07T01:27:06;5.72;;;3.35;;
20022;SDS011;10172;42.054;24.546;2023-05-07T01:29:32;3.92;;;2.90;;
20022;SDS011;10172;42.054;24.546;2023-05-07T01:31:58;5.90;;;3.90;;
20022;SDS011;10172;42.054;24.546;2023-05-07T01:34:25;7.20;;;3.83;;
20022;SDS011;10172;42.054;24.546;2023-05-07T01:36:53;8.00;;;3.38;;
20022;SDS011;10172;42.054;24.546;2023-05-07T01:39:21;5.18;;;3.53;;
20022;SDS011;10172;42.054;24.546;2023-05-07T01:41:49;6.18;;;4.07;;
20022;SDS011;10172;42.054;24.546;2023-05-07T01:44:15;6.28;;;3.67;;
20022;SDS011;10172;42.054;24.546;2023-05-07T01:46:41;8.32;;;3.90;;
20022;SDS011;10172;42.054;24.546;2023-05-07T01:49:07;5.93;;;3.55;;
20022;SDS011;10172;42.054;24.546;2023-05-07T01:51:33;6.45;;;4.15;;
20022;SDS011;10172;42.054;24.546;2023-05-07T01:53:59;9.95;;;3.80;;
20022;SDS011;10172;42.054;24.546;2023-05-07T01:56:25;5.63;;;3.72;;
20022;SDS011;10172;42.054;24.546;2023-05-07T01:58:50;4.70;;;3.55;;
20022;SDS011;10172;42.054;24.546;2023-05-07T02:01:17;5.38;;;3.67;;
20022;SDS011;10172;42.054;24.546;2023-05-07T02:03:43;5.85;;;3.83;;
20022;SDS011;10172;42.054;24.546;2023-05-07T02:06:09;7.18;;;3.42;;
20022;SDS011;10172;42.054;24.546;2023-05-07T02:08:34;7.85;;;3.53;;
20022;SDS011;10172;42.054;24.546;2023-05-07T02:11:00;5.93;;;3.50;;
20022;SDS011;10172;42.054;24.546;2023-05-07T02:13:28;9.25;;;4.20;;
20022;SDS011;10172;42.054;24.546;2023-05-07T02:15:54;7.35;;;3.97;;
20022;SDS011;10172;42.054;24.546;2023-05-07T02:18:20;4.75;;;3.58;;
20022;SDS011;10172;42.054;24.546;2023-05-07T02:20:45;9.38;;;4.18;;
20022;SDS011;10172;42.054;24.546;2023-05-07T02:23:11;7.40;;;4.65;;
20022;SDS011;10172;42.054;24.546;2023-05-07T02:25:36;8.63;;;4.03;;
20022;SDS011;10172;42.054;24.546;2023-05-07T02:28:02;6.18;;;4.30;;
20022;SDS011;10172;42.054;24.546;2023-05-07T02:30:27;5.63;;;3.58;;
20022;SDS011;10172;42.054;24.546;2023-05-07T02:37:11;6.70;;;4.55;;
20022;SDS011;10172;42.054;24.546;2023-05-07T02:39:36;6.05;;;4.15;;
20022;SDS011;10172;42.054;24.546;2023-05-07T02:42:02;6.55;;;3.58;;
20022;SDS011;10172;42.054;24.546;2023-05-07T02:44:27;6.68;;;4.03;;
20022;SDS011;10172;42.054;24.546;2023-05-07T02:46:56;4.70;;;3.53;;
20022;SDS011;10172;42.054;24.546;2023-05-07T02:49:21;4.85;;;3.58;;
20022;SDS011;10172;42.054;24.546;2023-05-07T02:51:47;6.72;;;4.15;;
20022;SDS011;10172;42.054;24.546;2023-05-07T02:54:12;5.88;;;3.75;;
20022;SDS011;10172;42.054;24.546;2023-05-07T02:56:38;6.15;;;3.97;;
20022;SDS011;10172;42.054;24.546;2023-05-07T02:59:03;5.78;;;3.97;;
20022;SDS011;10172;42.054;24.546;2023-05-07T03:01:28;6.38;;;3.90;;
20022;SDS011;10172;42.054;24.546;2023-05-07T03:03:54;6.25;;;4.28;;
20022;SDS011;10172;42.054;24.546;2023-05-07T03:06:20;9.52;;;4.38;;
20022;SDS011;10172;42.054;24.546;2023-05-07T03:08:45;5.30;;;3.90;;
20022;SDS011;10172;42.054;24.546;2023-05-07T03:11:11;5.90;;;4.00;;
20022;SDS011;10172;42.054;24.546;2023-05-07T03:13:36;6.70;;;4.30;;
20022;SDS011;10172;42.054;24.546;2023-05-07T03:16:02;6.13;;;4.30;;
20022;SDS011;10172;42.054;24.546;2023-05-07T03:18:27;11.35;;;5.95;;
20022;SDS011;10172;42.054;24.546;2023-05-07T03:20:53;5.38;;;4.07;;
20022;SDS011;10172;42.054;24.546;2023-05-07T03:23:18;6.15;;;4.22;;
20022;SDS011;10172;42.054;24.546;2023-05-07T03:25:44;7.93;;;6.03;;
20022;SDS011;10172;42.054;24.546;2023-05-07T03:28:09;7.00;;;4.22;;
20022;SDS011;10172;42.054;24.546;2023-05-07T03:30:34;7.45;;;5.03;;
20022;SDS011;10172;42.054;24.546;2023-05-07T03:33:00;7.40;;;4.10;;
20022;SDS011;10172;42.054;24.546;2023-05-07T03:35:25;7.70;;;4.45;;
20022;SDS011;10172;42.054;24.546;2023-05-07T03:37:51;6.45;;;4.75;;
20022;SDS011;10172;42.054;24.546;2023-05-07T03:40:16;7.60;;;4.43;;
20022;SDS011;10172;42.054;24.546;2023-05-07T03:42:42;6.72;;;4.10;;
20022;SDS011;10172;42.054;24.546;2023-05-07T03:45:08;8.70;;;4.22;;
20022;SDS011;10172;42.054;24.546;2023-05-07T03:47:33;6.60;;;4.05;;
20022;SDS011;10172;42.054;24.546;2023-05-07T03:49:59;6.55;;;4.18;;
20022;SDS011;10172;42.054;24.546;2023-05-07T03:52:24;5.93;;;4.13;;
20022;SDS011;10172;42.054;24.546;2023-05-07T03:54:51;8.48;;;4.70;;
20022;SDS011;10172;42.054;24.546;2023-05-07T03:57:18;5.40;;;3.83;;
20022;SDS011;10172;42.054;24.546;2023-05-07T03:59:43;6.72;;;3.88;;
20022;SDS011;10172;42.054;24.546;2023-05-07T04:02:09;6.15;;;4.53;;
20022;SDS011;10172;42.054;24.546;2023-05-07T04:04:34;6.38;;;4.50;;
20022;SDS011;10172;42.054;24.546;2023-05-07T04:07:00;7.35;;;4.03;;
20022;SDS011;10172;42.054;24.546;2023-05-07T04:09:25;6.05;;;4.13;;
20022;SDS011;10172;42.054;24.546;2023-05-07T04:11:51;7.60;;;4.05;;
20022;SDS011;10172;42.054;24.546;2023-05-07T04:14:16;6.20;;;4.43;;
20022;SDS011;10172;42.054;24.546;2023-05-07T04:16:41;9.13;;;4.20;;
20022;SDS011;10172;42.054;24.546;2023-05-07T04:19:07;6.38;;;4.35;;
20022;SDS011;10172;42.054;24.546;2023-05-07T04:21:32;6.90;;;4.65;;
20022;SDS011;10172;42.054;24.546;2023-05-07T04:23:58;6.22;;;4.40;;
20022;SDS011;10172;42.054;24.546;2023-05-07T04:26:23;7.00;;;4.45;;
20022;SDS011;10172;42.054;24.546;2023-05-07T04:28:49;8.45;;;4.15;;
20022;SDS011;10172;42.054;24.546;2023-05-07T04:31:15;5.93;;;4.03;;
20022;SDS011;10172;42.054;24.546;2023-05-07T04:33:40;7.78;;;4.63;;
20022;SDS011;10172;42.054;24.546;2023-05-07T04:36:06;8.52;;;5.13;;
20022;SDS011;10172;42.054;24.546;2023-05-07T04:38:31;7.88;;;4.25;;
20022;SDS011;10172;42.054;24.546;2023-05-07T04:40:58;6.30;;;4.43;;
20022;SDS011;10172;42.054;24.546;2023-05-07T04:43:28;7.55;;;4.35;;
20022;SDS011;10172;42.054;24.546;2023-05-07T04:45:53;8.02;;;4.38;;
20022;SDS011;10172;42.054;24.546;2023-05-07T04:48:19;5.97;;;4.32;;
20022;SDS011;10172;42.054;24.546;2023-05-07T04:50:49;7.80;;;4.68;;
20022;SDS011;10172;42.054;24.546;2023-05-07T04:53:14;7.85;;;4.63;;
20022;SDS011;10172;42.054;24.546;2023-05-07T04:55:40;8.70;;;4.93;;
20022;SDS011;10172;42.054;24.546;2023-05-07T04:58:05;9.25;;;5.22;;
20022;SDS011;10172;42.054;24.546;2023-05-07T05:00:31;6.30;;;4.45;;
20022;SDS011;10172;42.054;24.546;2023-05-07T05:02:56;8.63;;;4.55;;
20022;SDS011;10172;42.054;24.546;2023-05-07T05:05:22;11.30;;;5.15;;
20022;SDS011;10172;42.054;24.546;2023-05-07T05:07:47;8.40;;;4.28;;
20022;SDS011;10172;42.054;24.546;2023-05-07T05:10:13;7.47;;;4.45;;
20022;SDS011;10172;42.054;24.546;2023-05-07T05:12:38;7.15;;;4.40;;
20022;SDS011;10172;42.054;24.546;2023-05-07T05:15:04;5.38;;;3.97;;
20022;SDS011;10172;42.054;24.546;2023-05-07T05:17:30;7.65;;;4.25;;
20022;SDS011;10172;42.054;24.546;2023-05-07T05:19:55;6.45;;;4.50;;
20022;SDS011;10172;42.054;24.546;2023-05-07T05:22:21;7.93;;;3.92;;
20022;SDS011;10172;42.054;24.546;2023-05-07T05:24:46;6.18;;;3.83;;
20022;SDS011;10172;42.054;24.546;2023-05-07T05:27:12;6.47;;;3.65;;
20022;SDS011;10172;42.054;24.546;2023-05-07T05:29:37;5.20;;;3.65;;
20022;SDS011;10172;42.054;24.546;2023-05-07T05:32:03;7.72;;;3.88;;
20022;SDS011;10172;42.054;24.546;2023-05-07T05:34:28;6.40;;;3.88;;
20022;SDS011;10172;42.054;24.546;2023-05-07T05:36:54;6.85;;;3.60;;
20022;SDS011;10172;42.054;24.546;2023-05-07T05:39:19;6.32;;;3.58;;
20022;SDS011;10172;42.054;24.546;2023-05-07T05:41:46;6.32;;;3.90;;
20022;SDS011;10172;42.054;24.546;2023-05-07T05:44:12;4.70;;;3.55;;
20022;SDS011;10172;42.054;24.546;2023-05-07T05:46:37;7.95;;;4.05;;
20022;SDS011;10172;42.054;24.546;2023-05-07T05:49:02;5.78;;;3.65;;
20022;SDS011;10172;42.054;24.546;2023-05-07T05:51:28;6.75;;;4.10;;
20022;SDS011;10172;42.054;24.546;2023-05-07T05:53:53;4.25;;;3.45;;
20022;SDS011;10172;42.054;24.546;2023-05-07T05:56:19;7.30;;;3.67;;
20022;SDS011;10172;42.054;24.546;2023-05-07T05:58:44;7.07;;;3.13;;
20022;SDS011;10172;42.054;24.546;2023-05-07T06:01:10;7.05;;;3.63;;
20022;SDS011;10172;42.054;24.546;2023-05-07T06:03:37;5.85;;;3.33;;
20022;SDS011;10172;42.054;24.546;2023-05-07T06:06:02;7.00;;;3.60;;
20022;SDS011;10172;42.054;24.546;2023-05-07T06:08:29;5.95;;;3.67;;
20022;SDS011;10172;42.054;24.546;2023-05-07T06:10:55;7.68;;;4.07;;
20022;SDS011;10172;42.054;24.546;2023-05-07T06:13:21;4.53;;;3.13;;
20022;SDS011;10172;42.054;24.546;2023-05-07T06:15:46;6.43;;;3.60;;
20022;SDS011;10172;42.054;24.546;2023-05-07T06:18:12;5.65;;;3.75;;
20022;SDS011;10172;42.054;24.546;2023-05-07T06:20:37;6.05;;;3.10;;
20022;SDS011;10172;42.054;24.546;2023-05-07T06:23:02;5.03;;;3.22;;
20022;SDS011;10172;42.054;24.546;2023-05-07T06:25:28;5.22;;;3.13;;
20022;SDS011;10172;42.054;24.546;2023-05-07T06:27:53;5.90;;;3.20;;
20022;SDS011;10172;42.054;24.546;2023-05-07T06:30:19;4.32;;;3.03;;
20022;SDS011;10172;42.054;24.546;2023-05-07T06:32:44;4.68;;;3.25;;
20022;SDS011;10172;42.054;24.546;2023-05-07T06:35:10;4.93;;;3.20;;
20022;SDS011;10172;42.054;24.546;2023-05-07T06:37:35;5.30;;;3.03;;
20022;SDS011;10172;42.054;24.546;2023-05-07T06:40:04;5.40;;;3.33;;
20022;SDS011;10172;42.054;24.546;2023-05-07T06:42:30;6.70;;;3.80;;
20022;SDS011;10172;42.054;24.546;2023-05-07T06:44:56;6.25;;;3.25;;
20022;SDS011;10172;42.054;24.546;2023-05-07T06:47:21;7.05;;;3.35;;
20022;SDS011;10172;42.054;24.546;2023-05-07T06:49:47;6.47;;;3.30;;
20022;SDS011;10172;42.054;24.546;2023-05-07T06:52:12;4.95;;;3.10;;
20022;SDS011;10172;42.054;24.546;2023-05-07T06:54:37;3.35;;;2.50;;
20022;SDS011;10172;42.054;24.546;2023-05-07T06:57:03;5.00;;;3.03;;
20022;SDS011;10172;42.054;24.546;2023-05-07T06:59:28;5.93;;;3.05;;
20022;SDS011;10172;42.054;24.546;2023-05-07T07:01:54;5.32;;;3.00;;
20022;SDS011;10172;42.054;24.546;2023-05-07T07:04:19;5.07;;;3.42;;
20022;SDS011;10172;42.054;24.546;2023-05-07T07:06:47;4.60;;;2.95;;
20022;SDS011;10172;42.054;24.546;2023-05-07T07:09:12;5.95;;;3.58;;
20022;SDS011;10172;42.054;24.546;2023-05-07T07:11:38;5.25;;;3.25;;
20022;SDS011;10172;42.054;24.546;2023-05-07T07:14:03;4.32;;;2.55;;
20022;SDS011;10172;42.054;24.546;2023-05-07T07:16:30;3.97;;;2.90;;
20022;SDS011;10172;42.054;24.546;2023-05-07T07:18:55;6.38;;;2.88;;
20022;SDS011;10172;42.054;24.546;2023-05-07T07:21:21;3.75;;;2.42;;
20022;SDS011;10172;42.054;24.546;2023-05-07T07:23:46;5.78;;;2.50;;
20022;SDS011;10172;42.054;24.546;2023-05-07T07:26:12;4.35;;;2.45;;
20022;SDS011;10172;42.054;24.546;2023-05-07T07:28:44;4.60;;;2.55;;
20022;SDS011;10172;42.054;24.546;2023-05-07T07:31:10;6.10;;;2.55;;
20022;SDS011;10172;42.054;24.546;2023-05-07T07:33:36;4.25;;;2.70;;
20022;SDS011;10172;42.054;24.546;2023-05-07T07:36:01;5.20;;;3.17;;
20022;SDS011;10172;42.054;24.546;2023-05-07T07:38:27;3.40;;;2.50;;
20022;SDS011;10172;42.054;24.546;2023-05-07T07:40:53;5.47;;;2.90;;
20022;SDS011;10172;42.054;24.546;2023-05-07T07:43:18;5.07;;;2.25;;
20022;SDS011;10172;42.054;24.546;2023-05-07T07:45:43;4.38;;;2.50;;
20022;SDS011;10172;42.054;24.546;2023-05-07T07:48:10;5.20;;;2.65;;
20022;SDS011;10172;42.054;24.546;2023-05-07T07:50:36;4.82;;;2.72;;
20022;SDS011;10172;42.054;24.546;2023-05-07T07:53:02;3.92;;;2.40;;
20022;SDS011;10172;42.054;24.546;2023-05-07T07:55:27;3.92;;;2.58;;
20022;SDS011;10172;42.054;24.546;2023-05-07T07:57:53;4.95;;;2.50;;
20022;SDS011;10172;42.054;24.546;2023-05-07T08:00:18;4.75;;;2.53;;
20022;SDS011;10172;42.054;24.546;2023-05-07T08:02:44;4.82;;;2.55;;
20022;SDS011;10172;42.054;24.546;2023-05-07T08:05:09;5.50;;;2.83;;
20022;SDS011;10172;42.054;24.546;2023-05-07T08:07:35;5.18;;;2.60;;
20022;SDS011;10172;42.054;24.546;2023-05-07T08:10:01;8.32;;;3.05;;
20022;SDS011;10172;42.054;24.546;2023-05-07T08:12:27;6.38;;;2.95;;
20022;SDS011;10172;42.054;24.546;2023-05-07T08:14:52;5.00;;;2.42;;
20022;SDS011;10172;42.054;24.546;2023-05-07T08:17:18;4.40;;;2.42;;
20022;SDS011;10172;42.054;24.546;2023-05-07T08:19:43;5.47;;;2.97;;
20022;SDS011;10172;42.054;24.546;2023-05-07T08:22:09;4.60;;;2.63;;
20022;SDS011;10172;42.054;24.546;2023-05-07T08:24:35;3.47;;;2.40;;
20022;SDS011;10172;42.054;24.546;2023-05-07T08:27:01;6.93;;;2.65;;
20022;SDS011;10172;42.054;24.546;2023-05-07T08:29:27;6.97;;;2.92;;
20022;SDS011;10172;42.054;24.546;2023-05-07T08:31:52;4.72;;;2.83;;
20022;SDS011;10172;42.054;24.546;2023-05-07T08:34:18;3.35;;;2.50;;
20022;SDS011;10172;42.054;24.546;2023-05-07T08:36:44;4.68;;;2.30;;
20022;SDS011;10172;42.054;24.546;2023-05-07T08:39:12;4.30;;;2.38;;
20022;SDS011;10172;42.054;24.546;2023-05-07T08:41:37;4.13;;;2.70;;
20022;SDS011;10172;42.054;24.546;2023-05-07T08:44:03;3.65;;;1.95;;
20022;SDS011;10172;42.054;24.546;2023-05-07T08:46:36;5.05;;;2.40;;
20022;SDS011;10172;42.054;24.546;2023-05-07T08:49:02;4.65;;;2.15;;
20022;SDS011;10172;42.054;24.546;2023-05-07T08:51:27;4.32;;;1.95;;
20022;SDS011;10172;42.054;24.546;2023-05-07T08:53:53;2.60;;;1.77;;
20022;SDS011;10172;42.054;24.546;2023-05-07T08:56:18;2.65;;;1.85;;
20022;SDS011;10172;42.054;24.546;2023-05-07T08:58:45;4.18;;;2.00;;
20022;SDS011;10172;42.054;24.546;2023-05-07T09:01:14;3.85;;;2.40;;
20022;SDS011;10172;42.054;24.546;2023-05-07T09:03:41;3.00;;;2.10;;
20022;SDS011;10172;42.054;24.546;2023-05-07T09:06:10;4.20;;;2.08;;
20022;SDS011;10172;42.054;24.546;2023-05-07T09:08:35;2.95;;;1.75;;
20022;SDS011;10172;42.054;24.546;2023-05-07T09:11:02;3.42;;;1.95;;
20022;SDS011;10172;42.054;24.546;2023-05-07T09:13:28;2.88;;;2.20;;
20022;SDS011;10172;42.054;24.546;2023-05-07T09:15:54;2.95;;;1.73;;
20022;SDS011;10172;42.054;24.546;2023-05-07T09:18:20;2.25;;;1.50;;
20022;SDS011;10172;42.054;24.546;2023-05-07T09:20:45;1.75;;;1.35;;
20022;SDS011;10172;42.054;24.546;2023-05-07T09:23:11;3.88;;;1.40;;
20022;SDS011;10172;42.054;24.546;2023-05-07T09:25:36;1.85;;;1.20;;
20022;SDS011;10172;42.054;24.546;2023-05-07T09:28:03;2.35;;;1.67;;
20022;SDS011;10172;42.054;24.546;2023-05-07T09:30:29;2.13;;;1.30;;
20022;SDS011;10172;42.054;24.546;2023-05-07T09:32:59;3.20;;;1.52;;
20022;SDS011;10172;42.054;24.546;2023-05-07T09:35:25;3.05;;;1.45;;
20022;SDS011;10172;42.054;24.546;2023-05-07T09:37:55;4.82;;;1.63;;
20022;SDS011;10172;42.054;24.546;2023-05-07T09:40:26;1.50;;;1.30;;
20022;SDS011;10172;42.054;24.546;2023-05-07T09:42:53;2.90;;;1.52;;
20022;SDS011;10172;42.054;24.546;2023-05-07T09:45:37;2.33;;;1.73;;
20022;SDS011;10172;42.054;24.546;2023-05-07T09:48:04;2.50;;;1.70;;
20022;SDS011;10172;42.054;24.546;2023-05-07T09:50:32;3.53;;;1.92;;
20022;SDS011;10172;42.054;24.546;2023-05-07T09:53:01;2.22;;;1.55;;
20022;SDS011;10172;42.054;24.546;2023-05-07T09:55:28;1.50;;;1.20;;
20022;SDS011;10172;42.054;24.546;2023-05-07T09:57:55;2.80;;;1.45;;
20022;SDS011;10172;42.054;24.546;2023-05-07T10:00:23;2.47;;;1.42;;
20022;SDS011;10172;42.054;24.546;2023-05-07T10:02:53;3.45;;;1.70;;
20022;SDS011;10172;42.054;24.546;2023-05-07T10:05:22;1.92;;;1.40;;
20022;SDS011;10172;42.054;24.546;2023-05-07T10:07:49;3.63;;;1.60;;
20022;SDS011;10172;42.054;24.546;2023-05-07T10:10:15;2.45;;;1.40;;
20022;SDS011;10172;42.054;24.546;2023-05-07T10:12:42;3.05;;;1.40;;
20022;SDS011;10172;42.054;24.546;2023-05-07T10:15:08;1.73;;;1.25;;
20022;SDS011;10172;42.054;24.546;2023-05-07T10:17:35;1.73;;;1.13;;
20022;SDS011;10172;42.054;24.546;2023-05-07T10:20:02;1.52;;;1.40;;
20022;SDS011;10172;42.054;24.546;2023-05-07T10:22:29;2.45;;;1.52;;
20022;SDS011;10172;42.054;24.546;2023-05-07T10:25:03;4.57;;;1.63;;
20022;SDS011;10172;42.054;24.546;2023-05-07T10:27:34;1.40;;;1.10;;
20022;SDS011;10172;42.054;24.546;2023-05-07T10:32:42;3.70;;;1.48;;
20022;SDS011;10172;42.054;24.546;2023-05-07T10:35:30;1.33;;;1.02;;
20022;SDS011;10172;42.054;24.546;2023-05-07T10:38:03;2.58;;;1.30;;
20022;SDS011;10172;42.054;24.546;2023-05-07T10:40:30;3.15;;;1.30;;
20022;SDS011;10172;42.054;24.546;2023-05-07T10:42:56;3.03;;;1.13;;
20022;SDS011;10172;42.054;24.546;2023-05-07T10:45:24;2.22;;;1.20;;
20022;SDS011;10172;42.054;24.546;2023-05-07T10:50:35;2.20;;;1.10;;
20022;SDS011;10172;42.054;24.546;2023-05-07T10:55:43;1.98;;;1.10;;
20022;SDS011;10172;42.054;24.546;2023-05-07T11:00:47;2.28;;;1.25;;
20022;SDS011;10172;42.054;24.546;2023-05-07T11:03:13;1.63;;;1.23;;
20022;SDS011;10172;42.054;24.546;2023-05-07T11:05:40;3.40;;;1.52;;
20022;SDS011;10172;42.054;24.546;2023-05-07T11:08:06;2.20;;;1.13;;
20022;SDS011;10172;42.054;24.546;2023-05-07T11:13:14;1.50;;;1.02;;
20022;SDS011;10172;42.054;24.546;2023-05-07T11:15:41;2.67;;;1.00;;
20022;SDS011;10172;42.054;24.546;2023-05-07T11:18:09;1.90;;;1.05;;
20022;SDS011;10172;42.054;24.546;2023-05-07T11:20:54;2.90;;;1.23;;
20022;SDS011;10172;42.054;24.546;2023-05-07T11:26:03;3.10;;;1.40;;
20022;SDS011;10172;42.054;24.546;2023-05-07T11:28:30;1.92;;;1.10;;
20022;SDS011;10172;42.054;24.546;2023-05-07T11:30:56;1.90;;;1.25;;
20022;SDS011;10172;42.054;24.546;2023-05-07T11:33:22;2.30;;;1.42;;
20022;SDS011;10172;42.054;24.546;2023-05-07T11:35:54;3.22;;;1.17;;
20022;SDS011;10172;42.054;24.546;2023-05-07T11:38:20;2.70;;;1.02;;
20022;SDS011;10172;42.054;24.546;2023-05-07T11:43:20;2.42;;;1.30;;
20022;SDS011;10172;42.054;24.546;2023-05-07T11:45:46;2.42;;;0.95;;
20022;SDS011;10172;42.054;24.546;2023-05-07T11:48:13;3.20;;;1.23;;
20022;SDS011;10172;42.054;24.546;2023-05-07T11:50:52;1.98;;;1.27;;
20022;SDS011;10172;42.054;24.546;2023-05-07T11:53:38;2.88;;;1.30;;
20022;SDS011;10172;42.054;24.546;2023-05-07T11:56:06;6.88;;;1.08;;
20022;SDS011;10172;42.054;24.546;2023-05-07T11:58:32;1.30;;;1.08;;
20022;SDS011;10172;42.054;24.546;2023-05-07T12:00:58;1.77;;;1.00;;
20022;SDS011;10172;42.054;24.546;2023-05-07T12:03:23;1.40;;;1.00;;
20022;SDS011;10172;42.054;24.546;2023-05-07T12:05:49;1.73;;;1.02;;
20022;SDS011;10172;42.054;24.546;2023-05-07T12:08:15;1.48;;;0.93;;
20022;SDS011;10172;42.054;24.546;2023-05-07T12:10:41;3.92;;;1.13;;
20022;SDS011;10172;42.054;24.546;2023-05-07T12:15:46;2.55;;;1.10;;
20022;SDS011;10172;42.054;24.546;2023-05-07T12:18:15;1.27;;;0.70;;
20022;SDS011;10172;42.054;24.546;2023-05-07T12:20:40;1.55;;;0.90;;
20022;SDS011;10172;42.054;24.546;2023-05-07T12:23:06;2.85;;;1.10;;
20022;SDS011;10172;42.054;24.546;2023-05-07T12:25:34;3.00;;;1.10;;
20022;SDS011;10172;42.054;24.546;2023-05-07T12:28:13;0.90;;;0.80;;
20022;SDS011;10172;42.054;24.546;2023-05-07T12:30:42;2.15;;;1.00;;
20022;SDS011;10172;42.054;24.546;2023-05-07T12:33:09;1.63;;;0.88;;
20022;SDS011;10172;42.054;24.546;2023-05-07T12:35:42;1.17;;;1.00;;
20022;SDS011;10172;42.054;24.546;2023-05-07T12:38:11;2.33;;;0.98;;
20022;SDS011;10172;42.054;24.546;2023-05-07T12:40:39;3.67;;;1.48;;
20022;SDS011;10172;42.054;24.546;2023-05-07T12:43:06;2.40;;;1.10;;
20022;SDS011;10172;42.054;24.546;2023-05-07T12:45:36;0.95;;;0.82;;
20022;SDS011;10172;42.054;24.546;2023-05-07T12:48:03;3.42;;;1.27;;
20022;SDS011;10172;42.054;24.546;2023-05-07T12:50:32;8.30;;;3.30;;
20022;SDS011;10172;42.054;24.546;2023-05-07T12:52:58;2.05;;;1.02;;
20022;SDS011;10172;42.054;24.546;2023-05-07T12:55:24;3.05;;;1.10;;
20022;SDS011;10172;42.054;24.546;2023-05-07T12:57:50;2.03;;;0.90;;
20022;SDS011;10172;42.054;24.546;2023-05-07T13:00:18;4.38;;;1.10;;
20022;SDS011;10172;42.054;24.546;2023-05-07T13:03:06;2.65;;;1.10;;
20022;SDS011;10172;42.054;24.546;2023-05-07T13:05:31;3.85;;;0.85;;
20022;SDS011;10172;42.054;24.546;2023-05-07T13:07:57;2.00;;;1.10;;
20022;SDS011;10172;42.054;24.546;2023-05-07T13:10:23;2.83;;;1.10;;
20022;SDS011;10172;42.054;24.546;2023-05-07T13:12:49;1.88;;;1.15;;
20022;SDS011;10172;42.054;24.546;2023-05-07T13:15:15;1.17;;;0.95;;
20022;SDS011;10172;42.054;24.546;2023-05-07T13:17:41;1.98;;;0.90;;
20022;SDS011;10172;42.054;24.546;2023-05-07T13:20:08;1.27;;;1.10;;
20022;SDS011;10172;42.054;24.546;2023-05-07T13:22:34;2.50;;;1.00;;
20022;SDS011;10172;42.054;24.546;2023-05-07T13:25:00;1.98;;;1.20;;
20022;SDS011;10172;42.054;24.546;2023-05-07T13:27:25;1.70;;;0.85;;
20022;SDS011;10172;42.054;24.546;2023-05-07T13:29:51;3.47;;;1.40;;
20022;SDS011;10172;42.054;24.546;2023-05-07T13:32:16;2.13;;;1.10;;
20022;SDS011;10172;42.054;24.546;2023-05-07T13:34:42;2.15;;;1.10;;
20022;SDS011;10172;42.054;24.546;2023-05-07T13:37:07;2.90;;;1.35;;
20022;SDS011;10172;42.054;24.546;2023-05-07T13:39:33;2.33;;;1.30;;
20022;SDS011;10172;42.054;24.546;2023-05-07T13:41:59;1.88;;;1.20;;
20022;SDS011;10172;42.054;24.546;2023-05-07T13:44:24;2.00;;;1.30;;
20022;SDS011;10172;42.054;24.546;2023-05-07T13:46:50;3.20;;;1.52;;
20022;SDS011;10172;42.054;24.546;2023-05-07T13:49:16;1.88;;;1.30;;
20022;SDS011;10172;42.054;24.546;2023-05-07T13:51:41;2.65;;;1.10;;
20022;SDS011;10172;42.054;24.546;2023-05-07T13:54:07;1.60;;;0.80;;
20022;SDS011;10172;42.054;24.546;2023-05-07T13:56:32;2.70;;;1.58;;
20022;SDS011;10172;42.054;24.546;2023-05-07T13:58:58;1.45;;;0.93;;
20022;SDS011;10172;42.054;24.546;2023-05-07T14:01:23;2.28;;;1.27;;
20022;SDS011;10172;42.054;24.546;2023-05-07T14:03:49;4.07;;;1.60;;
20022;SDS011;10172;42.054;24.546;2023-05-07T14:06:14;2.42;;;1.50;;
20022;SDS011;10172;42.054;24.546;2023-05-07T14:08:40;1.88;;;1.13;;
20022;SDS011;10172;42.054;24.546;2023-05-07T14:11:06;1.52;;;1.10;;
20022;SDS011;10172;42.054;24.546;2023-05-07T14:13:31;1.67;;;1.35;;
20022;SDS011;10172;42.054;24.546;2023-05-07T14:15:57;5.25;;;2.20;;
20022;SDS011;10172;42.054;24.546;2023-05-07T14:18:23;7.32;;;2.05;;
20022;SDS011;10172;42.054;24.546;2023-05-07T14:20:48;4.38;;;1.85;;
20022;SDS011;10172;42.054;24.546;2023-05-07T14:23:14;3.63;;;1.83;;
20022;SDS011;10172;42.054;24.546;2023-05-07T14:25:41;3.42;;;1.50;;
20022;SDS011;10172;42.054;24.546;2023-05-07T14:28:08;2.78;;;1.58;;
20022;SDS011;10172;42.054;24.546;2023-05-07T14:30:34;1.88;;;1.33;;
20022;SDS011;10172;42.054;24.546;2023-05-07T14:33:00;3.00;;;1.33;;
20022;SDS011;10172;42.054;24.546;2023-05-07T14:35:25;4.57;;;1.30;;
20022;SDS011;10172;42.054;24.546;2023-05-07T14:37:51;2.30;;;1.50;;
20022;SDS011;10172;42.054;24.546;2023-05-07T14:40:16;3.53;;;1.23;;
20022;SDS011;10172;42.054;24.546;2023-05-07T14:42:41;2.88;;;1.45;;
20022;SDS011;10172;42.054;24.546;2023-05-07T14:45:07;2.42;;;1.20;;
20022;SDS011;10172;42.054;24.546;2023-05-07T14:47:33;2.00;;;1.30;;
20022;SDS011;10172;42.054;24.546;2023-05-07T14:49:59;1.50;;;1.20;;
20022;SDS011;10172;42.054;24.546;2023-05-07T14:52:26;4.30;;;1.35;;
20022;SDS011;10172;42.054;24.546;2023-05-07T14:54:51;2.03;;;1.23;;